sensor_id;sensor_type;location;lat;lon;timestamp;temperature;humidity
2465;DHT22;1244;54.326;10.074;2023-03-23T00:01:30;10.00;99.90
2465;DHT22;1244;54.326;10.074;2023-03-23T00:03:57;10.00;99.90
2465;DHT22;1244;54.326;10.074;2023-03-23T00:06:25;10.10;99.90
2465;DHT22;1244;54.326;10.074;2023-03-23T00:08:53;10.00;99.90
2465;DHT22;1244;54.326;10.074;2023-03-23T00:11:26;10.00;99.90
2465;DHT22;1244;54.326;10.074;2023-03-23T00:13:55;10.10;99.90
2465;DHT22;1244;54.326;10.074;2023-03-23T00:16:24;10.10;99.90
2465;DHT22;1244;54.326;10.074;2023-03-23T00:19:03;10.10;99.90
2465;DHT22;1244;54.326;10.074;2023-03-23T00:21:42;10.10;99.90
2465;DHT22;1244;54.326;10.074;2023-03-23T00:24:16;10.10;99.90
2465;DHT22;1244;54.326;10.074;2023-03-23T00:26:45;10.10;99.90
2465;DHT22;1244;54.326;10.074;2023-03-23T00:29:14;10.10;99.90
2465;DHT22;1244;54.326;10.074;2023-03-23T00:31:44;10.10;99.90
2465;DHT22;1244;54.326;10.074;2023-03-23T00:34:23;10.10;99.90
2465;DHT22;1244;54.326;10.074;2023-03-23T00:36:52;10.10;99.90
2465;DHT22;1244;54.326;10.074;2023-03-23T00:39:19;10.10;99.90
2465;DHT22;1244;54.326;10.074;2023-03-23T00:41:45;10.10;99.90
2465;DHT22;1244;54.326;10.074;2023-03-23T00:44:46;10.10;99.90
2465;DHT22;1244;54.326;10.074;2023-03-23T00:47:06;10.20;99.90
2465;DHT22;1244;54.326;10.074;2023-03-23T00:49:34;10.20;99.90
2465;DHT22;1244;54.326;10.074;2023-03-23T00:52:11;10.10;99.90
2465;DHT22;1244;54.326;10.074;2023-03-23T00:54:37;10.10;99.90
2465;DHT22;1244;54.326;10.074;2023-03-23T00:57:03;10.10;99.90
2465;DHT22;1244;54.326;10.074;2023-03-23T00:59:29;10.10;99.90
2465;DHT22;1244;54.326;10.074;2023-03-23T01:01:55;10.00;99.90
2465;DHT22;1244;54.326;10.074;2023-03-23T01:04:20;10.00;99.90
2465;DHT22;1244;54.326;10.074;2023-03-23T01:06:55;9.90;99.90
2465;DHT22;1244;54.326;10.074;2023-03-23T01:09:21;9.90;99.90
2465;DHT22;1244;54.326;10.074;2023-03-23T01:11:49;9.80;99.90
2465;DHT22;1244;54.326;10.074;2023-03-23T01:14:17;9.90;99.90
2465;DHT22;1244;54.326;10.074;2023-03-23T01:16:44;9.70;99.90
2465;DHT22;1244;54.326;10.074;2023-03-23T01:19:09;9.90;99.90
2465;DHT22;1244;54.326;10.074;2023-03-23T01:21:39;9.70;99.90
2465;DHT22;1244;54.326;10.074;2023-03-23T01:24:05;9.60;99.90
2465;DHT22;1244;54.326;10.074;2023-03-23T01:26:31;9.60;99.90
2465;DHT22;1244;54.326;10.074;2023-03-23T01:28:57;9.70;99.90
2465;DHT22;1244;54.326;10.074;2023-03-23T01:31:24;9.60;99.90
2465;DHT22;1244;54.326;10.074;2023-03-23T01:33:54;9.60;99.90
2465;DHT22;1244;54.326;10.074;2023-03-23T01:36:26;9.60;99.90
2465;DHT22;1244;54.326;10.074;2023-03-23T01:38:54;9.50;99.90
2465;DHT22;1244;54.326;10.074;2023-03-23T01:41:21;9.40;99.90
2465;DHT22;1244;54.326;10.074;2023-03-23T01:43:54;9.40;99.90
2465;DHT22;1244;54.326;10.074;2023-03-23T01:46:29;9.50;99.90
2465;DHT22;1244;54.326;10.074;2023-03-23T01:48:57;9.30;99.90
2465;DHT22;1244;54.326;10.074;2023-03-23T01:51:24;9.40;99.90
2465;DHT22;1244;54.326;10.074;2023-03-23T01:54:01;9.40;99.90
2465;DHT22;1244;54.326;10.074;2023-03-23T01:56:41;9.30;99.90
2465;DHT22;1244;54.326;10.074;2023-03-23T01:59:10;9.40;99.90
2465;DHT22;1244;54.326;10.074;2023-03-23T02:01:36;9.30;99.90
2465;DHT22;1244;54.326;10.074;2023-03-23T02:04:02;9.30;99.90
2465;DHT22;1244;54.326;10.074;2023-03-23T02:06:28;9.30;99.90
2465;DHT22;1244;54.326;10.074;2023-03-23T02:09:14;9.30;99.90
2465;DHT22;1244;54.326;10.074;2023-03-23T02:11:42;9.30;99.90
2465;DHT22;1244;54.326;10.074;2023-03-23T02:14:08;9.30;99.90
2465;DHT22;1244;54.326;10.074;2023-03-23T02:24:59;9.30;99.90
2465;DHT22;1244;54.326;10.074;2023-03-23T02:30:57;9.40;99.90
2465;DHT22;1244;54.326;10.074;2023-03-23T02:33:33;9.40;99.90
2465;DHT22;1244;54.326;10.074;2023-03-23T02:36:28;9.40;99.90
2465;DHT22;1244;54.326;10.074;2023-03-23T02:39:09;9.10;99.90
2465;DHT22;1244;54.326;10.074;2023-03-23T02:41:47;9.20;99.90
2465;DHT22;1244;54.326;10.074;2023-03-23T02:44:15;9.30;99.90
2465;DHT22;1244;54.326;10.074;2023-03-23T02:46:42;9.20;99.90
2465;DHT22;1244;54.326;10.074;2023-03-23T02:49:10;9.20;99.90
2465;DHT22;1244;54.326;10.074;2023-03-23T02:51:38;9.20;99.90
2465;DHT22;1244;54.326;10.074;2023-03-23T02:54:24;9.30;99.90
2465;DHT22;1244;54.326;10.074;2023-03-23T02:56:52;9.10;99.90
2465;DHT22;1244;54.326;10.074;2023-03-23T02:59:18;9.30;99.90
2465;DHT22;1244;54.326;10.074;2023-03-23T03:04:30;9.20;99.90
2465;DHT22;1244;54.326;10.074;2023-03-23T03:07:33;9.10;99.90
2465;DHT22;1244;54.326;10.074;2023-03-23T03:10:37;9.10;99.90
2465;DHT22;1244;54.326;10.074;2023-03-23T03:13:31;9.20;99.90
2465;DHT22;1244;54.326;10.074;2023-03-23T03:18:44;9.00;99.90
2465;DHT22;1244;54.326;10.074;2023-03-23T03:21:21;9.00;99.90
2465;DHT22;1244;54.326;10.074;2023-03-23T03:23:54;9.10;99.90
2465;DHT22;1244;54.326;10.074;2023-03-23T03:26:20;9.10;99.90
2465;DHT22;1244;54.326;10.074;2023-03-23T03:28:48;8.90;99.90
2465;DHT22;1244;54.326;10.074;2023-03-23T03:31:36;9.00;99.90
2465;DHT22;1244;54.326;10.074;2023-03-23T03:34:03;9.10;99.90
2465;DHT22;1244;54.326;10.074;2023-03-23T03:36:31;9.00;99.90
2465;DHT22;1244;54.326;10.074;2023-03-23T03:39:02;9.10;99.90
2465;DHT22;1244;54.326;10.074;2023-03-23T03:41:45;8.90;99.90
2465;DHT22;1244;54.326;10.074;2023-03-23T03:44:11;8.90;99.90
2465;DHT22;1244;54.326;10.074;2023-03-23T03:46:37;9.00;99.90
2465;DHT22;1244;54.326;10.074;2023-03-23T03:49:06;8.90;99.90
2465;DHT22;1244;54.326;10.074;2023-03-23T03:51:32;8.90;99.90
2465;DHT22;1244;54.326;10.074;2023-03-23T03:54:07;9.00;99.90
2465;DHT22;1244;54.326;10.074;2023-03-23T03:56:33;8.80;99.90
2465;DHT22;1244;54.326;10.074;2023-03-23T03:59:02;8.90;99.90
2465;DHT22;1244;54.326;10.074;2023-03-23T04:01:27;8.90;99.90
2465;DHT22;1244;54.326;10.074;2023-03-23T04:03:54;8.80;99.90
2465;DHT22;1244;54.326;10.074;2023-03-23T04:06:32;8.80;99.90
2465;DHT22;1244;54.326;10.074;2023-03-23T04:08:58;8.60;99.90
2465;DHT22;1244;54.326;10.074;2023-03-23T04:11:24;8.80;99.90
2465;DHT22;1244;54.326;10.074;2023-03-23T04:13:51;8.60;99.90
2465;DHT22;1244;54.326;10.074;2023-03-23T04:16:17;8.50;99.90
2465;DHT22;1244;54.326;10.074;2023-03-23T04:18:46;8.70;99.90
2465;DHT22;1244;54.326;10.074;2023-03-23T04:21:13;8.60;99.90
2465;DHT22;1244;54.326;10.074;2023-03-23T04:23:39;8.50;99.90
2465;DHT22;1244;54.326;10.074;2023-03-23T04:26:05;8.50;99.90
2465;DHT22;1244;54.326;10.074;2023-03-23T04:28:31;8.60;99.90
2465;DHT22;1244;54.326;10.074;2023-03-23T04:30:59;8.60;99.90
2465;DHT22;1244;54.326;10.074;2023-03-23T04:33:31;8.50;99.90
2465;DHT22;1244;54.326;10.074;2023-03-23T04:36:00;8.50;99.90
2465;DHT22;1244;54.326;10.074;2023-03-23T04:38:27;8.50;99.90
2465;DHT22;1244;54.326;10.074;2023-03-23T04:40:53;8.50;99.90
2465;DHT22;1244;54.326;10.074;2023-03-23T04:43:20;8.50;99.90
2465;DHT22;1244;54.326;10.074;2023-03-23T04:46:07;8.50;99.90
2465;DHT22;1244;54.326;10.074;2023-03-23T04:48:36;8.50;99.90
2465;DHT22;1244;54.326;10.074;2023-03-23T04:51:05;8.40;99.90
2465;DHT22;1244;54.326;10.074;2023-03-23T04:53:31;8.40;99.90
2465;DHT22;1244;54.326;10.074;2023-03-23T04:55:59;8.40;99.90
2465;DHT22;1244;54.326;10.074;2023-03-23T04:58:27;8.40;99.90
2465;DHT22;1244;54.326;10.074;2023-03-23T05:00:53;8.40;99.90
2465;DHT22;1244;54.326;10.074;2023-03-23T05:03:19;8.30;99.90
2465;DHT22;1244;54.326;10.074;2023-03-23T05:05:46;8.40;99.90
2465;DHT22;1244;54.326;10.074;2023-03-23T05:08:30;8.40;99.90
2465;DHT22;1244;54.326;10.074;2023-03-23T05:10:58;8.40;99.90
2465;DHT22;1244;54.326;10.074;2023-03-23T05:13:24;8.30;99.90
2465;DHT22;1244;54.326;10.074;2023-03-23T05:15:50;8.30;99.90
2465;DHT22;1244;54.326;10.074;2023-03-23T05:18:16;8.40;99.90
2465;DHT22;1244;54.326;10.074;2023-03-23T05:20:42;8.40;99.90
2465;DHT22;1244;54.326;10.074;2023-03-23T05:23:14;8.40;99.90
2465;DHT22;1244;54.326;10.074;2023-03-23T05:25:40;8.40;99.90
2465;DHT22;1244;54.326;10.074;2023-03-23T05:28:09;8.40;99.90
2465;DHT22;1244;54.326;10.074;2023-03-23T05:30:35;8.50;99.90
2465;DHT22;1244;54.326;10.074;2023-03-23T05:33:01;8.50;99.90
2465;DHT22;1244;54.326;10.074;2023-03-23T05:35:31;8.50;99.90
2465;DHT22;1244;54.326;10.074;2023-03-23T05:37:56;8.50;99.90
2465;DHT22;1244;54.326;10.074;2023-03-23T05:40:22;8.60;99.90
2465;DHT22;1244;54.326;10.074;2023-03-23T05:42:51;8.60;99.90
2465;DHT22;1244;54.326;10.074;2023-03-23T05:45:17;8.70;99.90
2465;DHT22;1244;54.326;10.074;2023-03-23T05:47:43;8.80;99.90
2465;DHT22;1244;54.326;10.074;2023-03-23T05:50:09;8.80;99.90
2465;DHT22;1244;54.326;10.074;2023-03-23T05:52:42;8.90;99.90
2465;DHT22;1244;54.326;10.074;2023-03-23T05:55:08;9.00;99.90
2465;DHT22;1244;54.326;10.074;2023-03-23T05:57:34;9.00;99.90
2465;DHT22;1244;54.326;10.074;2023-03-23T06:00:00;9.10;99.90
2465;DHT22;1244;54.326;10.074;2023-03-23T06:02:30;9.10;99.90
2465;DHT22;1244;54.326;10.074;2023-03-23T06:05:05;9.10;99.90
2465;DHT22;1244;54.326;10.074;2023-03-23T06:07:32;9.10;99.90
2465;DHT22;1244;54.326;10.074;2023-03-23T06:09:57;9.20;99.90
2465;DHT22;1244;54.326;10.074;2023-03-23T06:12:23;9.20;99.90
2465;DHT22;1244;54.326;10.074;2023-03-23T06:14:49;9.30;99.90
2465;DHT22;1244;54.326;10.074;2023-03-23T06:17:16;9.30;99.90
2465;DHT22;1244;54.326;10.074;2023-03-23T06:19:43;9.50;99.90
2465;DHT22;1244;54.326;10.074;2023-03-23T06:22:09;9.50;99.90
2465;DHT22;1244;54.326;10.074;2023-03-23T06:24:34;9.60;99.90
2465;DHT22;1244;54.326;10.074;2023-03-23T06:27:00;9.70;99.90
2465;DHT22;1244;54.326;10.074;2023-03-23T06:36:57;9.90;99.90
2465;DHT22;1244;54.326;10.074;2023-03-23T06:39:23;10.00;99.90
2465;DHT22;1244;54.326;10.074;2023-03-23T06:41:49;10.00;99.90
2465;DHT22;1244;54.326;10.074;2023-03-23T06:44:14;10.10;99.90
2465;DHT22;1244;54.326;10.074;2023-03-23T06:46:41;10.20;99.90
2465;DHT22;1244;54.326;10.074;2023-03-23T06:49:08;10.30;99.90
2465;DHT22;1244;54.326;10.074;2023-03-23T06:51:52;10.30;99.90
2465;DHT22;1244;54.326;10.074;2023-03-23T06:54:18;10.30;99.90
2465;DHT22;1244;54.326;10.074;2023-03-23T06:56:43;10.30;99.90
2465;DHT22;1244;54.326;10.074;2023-03-23T06:59:09;10.30;99.90
2465;DHT22;1244;54.326;10.074;2023-03-23T07:01:47;10.30;99.90
2465;DHT22;1244;54.326;10.074;2023-03-23T07:04:14;10.30;99.90
2465;DHT22;1244;54.326;10.074;2023-03-23T07:06:40;10.20;99.90
2465;DHT22;1244;54.326;10.074;2023-03-23T07:09:05;10.20;99.90
2465;DHT22;1244;54.326;10.074;2023-03-23T07:11:32;10.20;99.90
2465;DHT22;1244;54.326;10.074;2023-03-23T07:14:07;10.10;99.90
2465;DHT22;1244;54.326;10.074;2023-03-23T07:16:33;10.00;99.90
2465;DHT22;1244;54.326;10.074;2023-03-23T07:18:59;10.10;99.90
2465;DHT22;1244;54.326;10.074;2023-03-23T07:21:25;10.10;99.90
2465;DHT22;1244;54.326;10.074;2023-03-23T07:23:50;9.90;99.90
2465;DHT22;1244;54.326;10.074;2023-03-23T07:26:16;10.10;99.90
2465;DHT22;1244;54.326;10.074;2023-03-23T07:28:45;10.20;99.90
2465;DHT22;1244;54.326;10.074;2023-03-23T07:31:12;10.10;99.90
2465;DHT22;1244;54.326;10.074;2023-03-23T07:33:37;10.20;99.90
2465;DHT22;1244;54.326;10.074;2023-03-23T07:36:03;10.00;99.90
2465;DHT22;1244;54.326;10.074;2023-03-23T07:38:29;10.10;99.90
2465;DHT22;1244;54.326;10.074;2023-03-23T07:40:56;10.10;99.90
2465;DHT22;1244;54.326;10.074;2023-03-23T07:43:21;10.10;99.90
2465;DHT22;1244;54.326;10.074;2023-03-23T07:45:48;10.20;99.90
2465;DHT22;1244;54.326;10.074;2023-03-23T07:48:14;10.10;99.90
2465;DHT22;1244;54.326;10.074;2023-03-23T07:50:40;10.10;99.90
2465;DHT22;1244;54.326;10.074;2023-03-23T07:53:06;10.10;99.90
2465;DHT22;1244;54.326;10.074;2023-03-23T07:55:31;10.10;99.90
2465;DHT22;1244;54.326;10.074;2023-03-23T07:57:57;10.10;99.90
2465;DHT22;1244;54.326;10.074;2023-03-23T08:00:23;10.20;99.90
2465;DHT22;1244;54.326;10.074;2023-03-23T08:02:54;10.50;99.90
2465;DHT22;1244;54.326;10.074;2023-03-23T08:05:24;10.50;99.90
2465;DHT22;1244;54.326;10.074;2023-03-23T08:07:52;10.50;99.90
2465;DHT22;1244;54.326;10.074;2023-03-23T08:10:19;10.50;99.90
2465;DHT22;1244;54.326;10.074;2023-03-23T08:12:51;10.70;99.90
2465;DHT22;1244;54.326;10.074;2023-03-23T08:15:17;10.80;99.90
2465;DHT22;1244;54.326;10.074;2023-03-23T08:17:43;11.00;99.90
2465;DHT22;1244;54.326;10.074;2023-03-23T08:20:11;11.10;99.90
2465;DHT22;1244;54.326;10.074;2023-03-23T08:22:43;11.00;99.90
2465;DHT22;1244;54.326;10.074;2023-03-23T08:25:11;10.90;99.90
2465;DHT22;1244;54.326;10.074;2023-03-23T08:27:38;10.80;99.90
2465;DHT22;1244;54.326;10.074;2023-03-23T08:30:13;10.80;99.90
2465;DHT22;1244;54.326;10.074;2023-03-23T08:32:40;10.90;99.90
2465;DHT22;1244;54.326;10.074;2023-03-23T08:35:07;10.80;99.90
2465;DHT22;1244;54.326;10.074;2023-03-23T08:37:34;10.80;99.90
2465;DHT22;1244;54.326;10.074;2023-03-23T08:39:59;10.80;99.90
2465;DHT22;1244;54.326;10.074;2023-03-23T08:42:25;10.70;99.90
2465;DHT22;1244;54.326;10.074;2023-03-23T08:44:52;10.70;99.90
2465;DHT22;1244;54.326;10.074;2023-03-23T08:47:18;10.80;99.90
2465;DHT22;1244;54.326;10.074;2023-03-23T08:49:43;10.90;99.90
2465;DHT22;1244;54.326;10.074;2023-03-23T08:52:10;11.10;99.90
2465;DHT22;1244;54.326;10.074;2023-03-23T08:54:36;11.40;99.90
2465;DHT22;1244;54.326;10.074;2023-03-23T08:57:03;11.70;99.90
2465;DHT22;1244;54.326;10.074;2023-03-23T08:59:29;11.80;99.90
2465;DHT22;1244;54.326;10.074;2023-03-23T09:01:55;12.00;99.90
2465;DHT22;1244;54.326;10.074;2023-03-23T09:04:20;11.80;99.90
2465;DHT22;1244;54.326;10.074;2023-03-23T09:06:46;11.90;99.90
2465;DHT22;1244;54.326;10.074;2023-03-23T09:14:25;12.10;99.90
2465;DHT22;1244;54.326;10.074;2023-03-23T09:16:52;11.70;99.90
2465;DHT22;1244;54.326;10.074;2023-03-23T09:19:17;12.10;99.90
2465;DHT22;1244;54.326;10.074;2023-03-23T09:21:43;12.40;99.90
2465;DHT22;1244;54.326;10.074;2023-03-23T09:24:10;12.40;99.90
2465;DHT22;1244;54.326;10.074;2023-03-23T09:26:36;12.50;99.90
2465;DHT22;1244;54.326;10.074;2023-03-23T09:29:02;12.80;99.90
2465;DHT22;1244;54.326;10.074;2023-03-23T09:31:27;12.50;99.90
2465;DHT22;1244;54.326;10.074;2023-03-23T09:33:56;12.20;99.90
2465;DHT22;1244;54.326;10.074;2023-03-23T09:36:25;12.00;99.90
2465;DHT22;1244;54.326;10.074;2023-03-23T09:38:52;12.00;99.90
2465;DHT22;1244;54.326;10.074;2023-03-23T09:53:15;12.00;99.90
2465;DHT22;1244;54.326;10.074;2023-03-23T09:58:32;12.60;99.90
2465;DHT22;1244;54.326;10.074;2023-03-23T10:01:07;12.30;99.90
2465;DHT22;1244;54.326;10.074;2023-03-23T10:03:59;12.40;99.90
2465;DHT22;1244;54.326;10.074;2023-03-23T10:06:27;13.10;99.90
2465;DHT22;1244;54.326;10.074;2023-03-23T10:08:55;13.60;99.90
2465;DHT22;1244;54.326;10.074;2023-03-23T10:17:46;12.20;99.90
2465;DHT22;1244;54.326;10.074;2023-03-23T10:43:54;14.80;99.90
2465;DHT22;1244;54.326;10.074;2023-03-23T10:59:21;17.50;99.90
2465;DHT22;1244;54.326;10.074;2023-03-23T11:01:58;17.70;99.90
2465;DHT22;1244;54.326;10.074;2023-03-23T11:07:18;17.90;99.90
2465;DHT22;1244;54.326;10.074;2023-03-23T11:09:53;16.80;99.90
2465;DHT22;1244;54.326;10.074;2023-03-23T11:12:19;17.00;99.90
2465;DHT22;1244;54.326;10.074;2023-03-23T11:14:46;16.50;99.90
2465;DHT22;1244;54.326;10.074;2023-03-23T11:19:49;16.00;99.90
2465;DHT22;1244;54.326;10.074;2023-03-23T11:22:24;15.20;99.90
2465;DHT22;1244;54.326;10.074;2023-03-23T11:24:59;15.10;99.90
2465;DHT22;1244;54.326;10.074;2023-03-23T11:27:28;15.90;99.90
2465;DHT22;1244;54.326;10.074;2023-03-23T11:30:07;17.00;99.90
2465;DHT22;1244;54.326;10.074;2023-03-23T11:32:34;16.60;99.90
2465;DHT22;1244;54.326;10.074;2023-03-23T11:35:03;16.80;99.90
2465;DHT22;1244;54.326;10.074;2023-03-23T11:37:51;16.30;99.90
2465;DHT22;1244;54.326;10.074;2023-03-23T11:40:23;16.50;99.90
2465;DHT22;1244;54.326;10.074;2023-03-23T11:45:35;17.30;99.90
2465;DHT22;1244;54.326;10.074;2023-03-23T11:48:33;17.40;99.90
2465;DHT22;1244;54.326;10.074;2023-03-23T11:51:24;16.00;99.90
2465;DHT22;1244;54.326;10.074;2023-03-23T11:56:42;14.40;99.90
2465;DHT22;1244;54.326;10.074;2023-03-23T11:59:26;15.50;99.90
2465;DHT22;1244;54.326;10.074;2023-03-23T12:08:05;15.30;99.90
2465;DHT22;1244;54.326;10.074;2023-03-23T12:19:31;18.70;99.90
2465;DHT22;1244;54.326;10.074;2023-03-23T12:22:09;17.80;99.90
2465;DHT22;1244;54.326;10.074;2023-03-23T12:24:58;18.00;99.90
2465;DHT22;1244;54.326;10.074;2023-03-23T12:27:42;18.10;99.90
2465;DHT22;1244;54.326;10.074;2023-03-23T12:30:35;18.70;99.90
2465;DHT22;1244;54.326;10.074;2023-03-23T12:39:11;19.60;99.90
2465;DHT22;1244;54.326;10.074;2023-03-23T12:44:10;20.10;99.90
2465;DHT22;1244;54.326;10.074;2023-03-23T12:49:38;20.20;99.90
2465;DHT22;1244;54.326;10.074;2023-03-23T12:52:28;19.40;99.90
2465;DHT22;1244;54.326;10.074;2023-03-23T12:55:09;19.40;99.90
2465;DHT22;1244;54.326;10.074;2023-03-23T12:57:53;19.90;99.90
2465;DHT22;1244;54.326;10.074;2023-03-23T13:00:52;19.90;99.90
2465;DHT22;1244;54.326;10.074;2023-03-23T13:06:32;20.40;99.90
2465;DHT22;1244;54.326;10.074;2023-03-23T13:09:05;20.70;99.90
2465;DHT22;1244;54.326;10.074;2023-03-23T13:11:42;19.40;99.90
2465;DHT22;1244;54.326;10.074;2023-03-23T13:22:47;19.60;99.90
2465;DHT22;1244;54.326;10.074;2023-03-23T13:25:38;20.30;99.90
2465;DHT22;1244;54.326;10.074;2023-03-23T13:28:24;20.70;99.90
2465;DHT22;1244;54.326;10.074;2023-03-23T13:30:59;19.60;99.90
2465;DHT22;1244;54.326;10.074;2023-03-23T13:33:33;19.10;99.90
2465;DHT22;1244;54.326;10.074;2023-03-23T13:36:26;19.90;99.90
2465;DHT22;1244;54.326;10.074;2023-03-23T13:43:50;21.30;99.90
2465;DHT22;1244;54.326;10.074;2023-03-23T13:48:49;20.20;99.90
2465;DHT22;1244;54.326;10.074;2023-03-23T13:51:47;20.90;99.90
2465;DHT22;1244;54.326;10.074;2023-03-23T14:04:23;20.50;99.90
2465;DHT22;1244;54.326;10.074;2023-03-23T14:09:32;17.30;99.90
2465;DHT22;1244;54.326;10.074;2023-03-23T14:12:01;17.50;99.90
2465;DHT22;1244;54.326;10.074;2023-03-23T14:14:40;18.00;99.90
2465;DHT22;1244;54.326;10.074;2023-03-23T14:17:23;18.60;99.90
2465;DHT22;1244;54.326;10.074;2023-03-23T14:19:54;19.10;99.90
2465;DHT22;1244;54.326;10.074;2023-03-23T14:22:35;18.70;99.90
2465;DHT22;1244;54.326;10.074;2023-03-23T14:25:15;20.00;99.90
2465;DHT22;1244;54.326;10.074;2023-03-23T14:27:42;19.80;99.90
2465;DHT22;1244;54.326;10.074;2023-03-23T14:30:22;19.70;99.90
2465;DHT22;1244;54.326;10.074;2023-03-23T14:32:48;20.50;99.90
2465;DHT22;1244;54.326;10.074;2023-03-23T14:37:47;20.00;99.90
2465;DHT22;1244;54.326;10.074;2023-03-23T14:40:18;19.30;99.90
2465;DHT22;1244;54.326;10.074;2023-03-23T14:42:44;19.10;99.90
2465;DHT22;1244;54.326;10.074;2023-03-23T14:45:14;18.90;99.90
2465;DHT22;1244;54.326;10.074;2023-03-23T14:47:43;18.60;99.90
2465;DHT22;1244;54.326;10.074;2023-03-23T14:50:29;17.50;99.90
2465;DHT22;1244;54.326;10.074;2023-03-23T14:53:09;16.80;99.90
2465;DHT22;1244;54.326;10.074;2023-03-23T14:55:35;16.30;99.90
2465;DHT22;1244;54.326;10.074;2023-03-23T14:58:08;16.70;99.90
2465;DHT22;1244;54.326;10.074;2023-03-23T15:00:43;16.40;99.90
2465;DHT22;1244;54.326;10.074;2023-03-23T15:03:16;16.30;99.90
2465;DHT22;1244;54.326;10.074;2023-03-23T15:05:59;15.90;99.90
2465;DHT22;1244;54.326;10.074;2023-03-23T15:08:32;15.80;99.90
2465;DHT22;1244;54.326;10.074;2023-03-23T15:13:29;15.20;99.90
2465;DHT22;1244;54.326;10.074;2023-03-23T15:16:14;15.40;99.90
2465;DHT22;1244;54.326;10.074;2023-03-23T15:18:58;15.50;99.90
2465;DHT22;1244;54.326;10.074;2023-03-23T15:23:55;15.00;99.90
2465;DHT22;1244;54.326;10.074;2023-03-23T15:29:12;14.60;99.90
2465;DHT22;1244;54.326;10.074;2023-03-23T15:31:48;14.90;99.90
2465;DHT22;1244;54.326;10.074;2023-03-23T15:34:35;15.00;99.90
2465;DHT22;1244;54.326;10.074;2023-03-23T15:37:31;14.90;99.90
2465;DHT22;1244;54.326;10.074;2023-03-23T15:39:58;15.00;99.90
2465;DHT22;1244;54.326;10.074;2023-03-23T15:43:05;15.00;99.90
2465;DHT22;1244;54.326;10.074;2023-03-23T15:45:31;14.70;99.90
2465;DHT22;1244;54.326;10.074;2023-03-23T15:48:10;14.70;99.90
2465;DHT22;1244;54.326;10.074;2023-03-23T15:50:48;14.60;99.90
2465;DHT22;1244;54.326;10.074;2023-03-23T15:53:32;14.60;99.90
2465;DHT22;1244;54.326;10.074;2023-03-23T15:56:03;14.40;99.90
2465;DHT22;1244;54.326;10.074;2023-03-23T15:58:29;14.40;99.90
2465;DHT22;1244;54.326;10.074;2023-03-23T16:00:55;14.30;99.90
2465;DHT22;1244;54.326;10.074;2023-03-23T16:03:27;14.10;99.90
2465;DHT22;1244;54.326;10.074;2023-03-23T16:05:55;14.10;99.90
2465;DHT22;1244;54.326;10.074;2023-03-23T16:08:21;14.30;99.90
2465;DHT22;1244;54.326;10.074;2023-03-23T16:10:47;14.20;99.90
2465;DHT22;1244;54.326;10.074;2023-03-23T16:13:12;14.20;99.90
2465;DHT22;1244;54.326;10.074;2023-03-23T16:15:38;14.20;99.90
2465;DHT22;1244;54.326;10.074;2023-03-23T16:18:04;14.20;99.90
2465;DHT22;1244;54.326;10.074;2023-03-23T16:20:29;14.20;99.90
2465;DHT22;1244;54.326;10.074;2023-03-23T16:22:57;14.10;99.90
2465;DHT22;1244;54.326;10.074;2023-03-23T16:25:23;14.10;99.90
2465;DHT22;1244;54.326;10.074;2023-03-23T16:27:48;13.90;99.90
2465;DHT22;1244;54.326;10.074;2023-03-23T16:30:26;13.80;99.90
2465;DHT22;1244;54.326;10.074;2023-03-23T16:32:52;13.80;99.90
2465;DHT22;1244;54.326;10.074;2023-03-23T16:35:18;13.50;99.90
2465;DHT22;1244;54.326;10.074;2023-03-23T16:37:49;13.50;99.90
2465;DHT22;1244;54.326;10.074;2023-03-23T16:40:16;13.50;99.90
2465;DHT22;1244;54.326;10.074;2023-03-23T16:42:42;13.70;99.90
2465;DHT22;1244;54.326;10.074;2023-03-23T16:45:08;13.50;99.90
2465;DHT22;1244;54.326;10.074;2023-03-23T16:47:34;13.30;99.90
2465;DHT22;1244;54.326;10.074;2023-03-23T16:50:00;13.40;99.90
2465;DHT22;1244;54.326;10.074;2023-03-23T16:52:26;13.40;99.90
2465;DHT22;1244;54.326;10.074;2023-03-23T16:54:51;13.40;99.90
2465;DHT22;1244;54.326;10.074;2023-03-23T16:57:17;13.40;99.90
2465;DHT22;1244;54.326;10.074;2023-03-23T16:59:42;13.30;99.90
2465;DHT22;1244;54.326;10.074;2023-03-23T17:02:10;13.50;99.90
2465;DHT22;1244;54.326;10.074;2023-03-23T17:04:35;13.40;99.90
2465;DHT22;1244;54.326;10.074;2023-03-23T17:07:01;13.40;99.90
2465;DHT22;1244;54.326;10.074;2023-03-23T17:09:27;13.20;99.90
2465;DHT22;1244;54.326;10.074;2023-03-23T17:11:53;13.10;99.90
2465;DHT22;1244;54.326;10.074;2023-03-23T17:14:21;13.20;99.90
2465;DHT22;1244;54.326;10.074;2023-03-23T17:16:46;13.10;99.90
2465;DHT22;1244;54.326;10.074;2023-03-23T17:19:12;13.10;99.90
2465;DHT22;1244;54.326;10.074;2023-03-23T17:21:41;12.90;99.90
2465;DHT22;1244;54.326;10.074;2023-03-23T17:24:07;12.90;99.90
2465;DHT22;1244;54.326;10.074;2023-03-23T17:26:33;12.90;99.90
2465;DHT22;1244;54.326;10.074;2023-03-23T17:28:59;12.80;99.90
2465;DHT22;1244;54.326;10.074;2023-03-23T17:31:25;12.70;99.90
2465;DHT22;1244;54.326;10.074;2023-03-23T17:33:51;12.60;99.90
2465;DHT22;1244;54.326;10.074;2023-03-23T17:36:17;12.70;99.90
2465;DHT22;1244;54.326;10.074;2023-03-23T17:38:43;12.50;99.90
2465;DHT22;1244;54.326;10.074;2023-03-23T17:41:09;12.40;99.90
2465;DHT22;1244;54.326;10.074;2023-03-23T17:43:36;12.60;99.90
2465;DHT22;1244;54.326;10.074;2023-03-23T17:46:04;12.60;99.90
2465;DHT22;1244;54.326;10.074;2023-03-23T17:48:31;12.60;99.90
2465;DHT22;1244;54.326;10.074;2023-03-23T17:50:56;12.60;99.90
2465;DHT22;1244;54.326;10.074;2023-03-23T17:53:24;12.40;99.90
2465;DHT22;1244;54.326;10.074;2023-03-23T17:55:51;12.40;99.90
2465;DHT22;1244;54.326;10.074;2023-03-23T17:58:17;12.30;99.90
2465;DHT22;1244;54.326;10.074;2023-03-23T18:00:42;12.20;99.90
2465;DHT22;1244;54.326;10.074;2023-03-23T18:03:08;12.30;99.90
2465;DHT22;1244;54.326;10.074;2023-03-23T18:05:34;12.10;99.90
2465;DHT22;1244;54.326;10.074;2023-03-23T18:08:02;12.10;99.90
2465;DHT22;1244;54.326;10.074;2023-03-23T18:10:28;12.20;99.90
2465;DHT22;1244;54.326;10.074;2023-03-23T18:12:53;12.00;99.90
2465;DHT22;1244;54.326;10.074;2023-03-23T18:15:19;11.90;99.90
2465;DHT22;1244;54.326;10.074;2023-03-23T18:17:45;12.00;99.90
2465;DHT22;1244;54.326;10.074;2023-03-23T18:20:12;12.00;99.90
2465;DHT22;1244;54.326;10.074;2023-03-23T18:22:38;12.00;99.90
2465;DHT22;1244;54.326;10.074;2023-03-23T18:25:04;11.90;99.90
2465;DHT22;1244;54.326;10.074;2023-03-23T18:27:30;11.90;99.90
2465;DHT22;1244;54.326;10.074;2023-03-23T18:29:56;11.60;99.90
2465;DHT22;1244;54.326;10.074;2023-03-23T18:32:22;11.60;99.90
2465;DHT22;1244;54.326;10.074;2023-03-23T18:34:47;11.60;99.90
2465;DHT22;1244;54.326;10.074;2023-03-23T18:37:14;11.70;99.90
2465;DHT22;1244;54.326;10.074;2023-03-23T18:39:40;11.50;99.90
2465;DHT22;1244;54.326;10.074;2023-03-23T18:42:06;11.60;99.90
2465;DHT22;1244;54.326;10.074;2023-03-23T18:44:31;11.60;99.90
2465;DHT22;1244;54.326;10.074;2023-03-23T18:46:57;11.40;99.90
2465;DHT22;1244;54.326;10.074;2023-03-23T18:49:23;11.50;99.90
2465;DHT22;1244;54.326;10.074;2023-03-23T18:51:48;11.50;99.90
2465;DHT22;1244;54.326;10.074;2023-03-23T18:54:14;11.50;99.90
2465;DHT22;1244;54.326;10.074;2023-03-23T18:56:39;11.50;99.90